Time;durP1;ratioP1;P1;durP2;ratioP2;P2;SDS_P1;SDS_P2;PMS_P1;PMS_P2;Temp;Humidity;BMP_temperature;BMP_pressure;BME280_temperature;BME280_humidity;BME280_pressure;Samples;Min_cycle;Max_cycle;Signal;HPM_P1;HPM_P2
2022/03/16 00:01:53;;;;;;;;;14.50;13.75;;;;;12.89;70.87;101799.81;5051843;28;45334;-64
2022/03/16 00:04:19;;;;;;;;;16.25;13.50;;;;;12.90;70.82;101805.94;5051732;28;46095;-63
2022/03/16 00:06:44;;;;;;;;;15.00;14.25;;;;;12.89;70.58;101798.94;5050783;28;45317;-64
2022/03/16 00:09:10;;;;;;;;;17.25;12.75;;;;;12.88;70.73;101802.53;5051756;28;46378;-63
2022/03/16 00:11:35;;;;;;;;;12.25;12.25;;;;;12.89;70.85;101793.66;5051589;28;45428;-64
2022/03/16 00:14:01;;;;;;;;;11.00;10.75;;;;;12.89;70.70;101801.59;5052709;28;45449;-63
2022/03/16 00:16:27;;;;;;;;;15.00;11.50;;;;;12.89;70.83;101805.09;5050007;28;45770;-64
2022/03/16 00:18:52;;;;;;;;;18.50;13.00;;;;;12.90;70.52;101804.16;5051302;28;45449;-63
2022/03/16 00:21:18;;;;;;;;;13.50;13.25;;;;;12.86;70.80;101800.78;5050688;28;45420;-65
2022/03/16 00:23:43;;;;;;;;;19.00;12.50;;;;;12.89;70.87;101806.88;5051602;28;45471;-63
2022/03/16 00:26:09;;;;;;;;;10.50;8.75;;;;;12.88;70.72;101802.53;5057328;28;45446;-62
2022/03/16 00:28:35;;;;;;;;;16.00;11.00;;;;;12.87;70.83;101806.94;5051540;28;45479;-62
2022/03/16 00:31:04;;;;;;;;;15.25;14.75;;;;;12.85;70.55;101796.44;5047403;28;45634;-64
2022/03/16 00:33:30;;;;;;;;;12.00;10.75;;;;;12.84;70.75;101792.09;5052672;28;46097;-62
2022/03/16 00:35:56;;;;;;;;;12.00;11.25;;;;;12.84;70.77;101791.25;5048881;28;45336;-64
2022/03/16 00:38:21;;;;;;;;;13.25;12.00;;;;;12.88;70.64;101807.81;5051194;28;45541;-63
2022/03/16 00:40:47;;;;;;;;;12.75;12.00;;;;;12.86;70.84;101795.50;5051507;28;45163;-63
2022/03/16 00:43:14;;;;;;;;;14.75;13.00;;;;;12.87;70.73;101796.38;5047943;28;45407;-63
2022/03/16 00:45:39;;;;;;;;;12.50;10.50;;;;;12.86;70.50;101800.78;5048339;28;45485;-63
2022/03/16 00:48:05;;;;;;;;;17.00;13.75;;;;;12.86;70.57;101792.00;5050568;28;45385;-61
2022/03/16 00:50:32;;;;;;;;;11.25;10.25;;;;;12.86;70.72;101795.50;5052179;28;45553;-63
2022/03/16 00:52:57;;;;;;;;;12.25;12.25;;;;;12.86;70.79;101787.56;5048960;28;45792;-62
2022/03/16 00:55:23;;;;;;;;;14.25;12.75;;;;;12.86;70.60;101786.72;5046462;28;45455;-65
2022/03/16 00:57:49;;;;;;;;;16.00;12.00;;;;;12.84;70.69;101778.88;5049144;28;45353;-62
2022/03/16 01:00:14;;;;;;;;;13.25;11.50;;;;;12.83;70.46;101781.59;5052839;28;45666;-64
2022/03/16 01:02:40;;;;;;;;;13.75;11.00;;;;;12.82;70.39;101775.47;5048923;28;45818;-63
2022/03/16 01:05:06;;;;;;;;;15.25;12.00;;;;;12.82;70.13;101766.69;5048941;28;45477;-64
2022/03/16 01:07:32;;;;;;;;;12.00;12.00;;;;;12.80;70.37;101772.06;5049023;28;45515;-62
2022/03/16 01:09:57;;;;;;;;;13.25;12.50;;;;;12.80;70.61;101766.75;5048153;28;45387;-61
2022/03/16 01:12:23;;;;;;;;;14.00;11.75;;;;;12.81;70.59;101763.19;5049250;28;45973;-62
2022/03/16 01:14:49;;;;;;;;;11.50;11.00;;;;;12.82;70.35;101758.75;5045391;28;45563;-60
2022/03/16 01:17:14;;;;;;;;;11.75;11.25;;;;;12.82;70.32;101756.94;5046694;28;45377;-61
2022/03/16 01:19:40;;;;;;;;;14.50;11.50;;;;;12.82;70.21;101756.09;5047798;28;45467;-63
2022/03/16 01:22:06;;;;;;;;;14.25;12.25;;;;;12.82;70.45;101751.66;5048444;28;45565;-62
2022/03/16 01:24:32;;;;;;;;;16.50;13.25;;;;;12.81;70.30;101754.41;5048335;28;45351;-62
2022/03/16 01:26:58;;;;;;;;;14.50;11.00;;;;;12.79;70.34;101745.66;5049177;28;45305;-63
2022/03/16 01:29:24;;;;;;;;;15.50;15.50;;;;;12.79;70.41;101750.97;5047604;28;45336;-62
2022/03/16 01:31:53;;;;;;;;;14.50;13.50;;;;;12.76;70.50;101740.56;5051054;28;45525;-60
2022/03/16 01:34:19;;;;;;;;;16.75;13.00;;;;;12.75;70.42;101737.06;5045386;28;45435;-61
2022/03/16 01:36:45;;;;;;;;;15.00;12.50;;;;;12.75;70.38;101733.56;5049002;28;45357;-60
2022/03/16 01:39:11;;;;;;;;;16.25;13.00;;;;;12.72;70.48;101728.44;5049251;28;45422;-62
2022/03/16 01:41:36;;;;;;;;;16.50;13.00;;;;;12.71;70.74;101726.72;5050943;28;46302;-63
2022/03/16 01:44:03;;;;;;;;;18.75;14.50;;;;;12.69;70.49;101726.78;5050927;28;45421;-63
2022/03/16 01:46:28;;;;;;;;;17.25;13.25;;;;;12.68;70.71;101727.72;5049600;28;45441;-62
2022/03/16 01:48:54;;;;;;;;;17.00;14.00;;;;;12.67;70.62;101727.81;5050484;28;45398;-61
2022/03/16 01:51:21;;;;;;;;;17.00;14.00;;;;;12.66;70.29;101734.03;5041693;28;46075;-61
2022/03/16 01:53:46;;;;;;;;;15.75;12.25;;;;;12.66;70.48;101734.91;5048913;28;45516;-61
2022/03/16 01:56:15;;;;;;;;;18.25;15.25;;;;;12.66;70.49;101728.75;5056297;28;45619;-60
2022/03/16 01:58:41;;;;;;;;;19.00;13.75;;;;;12.63;70.63;101731.53;5057461;28;45444;-61
2022/03/16 02:01:06;;;;;;;;;16.00;14.50;;;;;12.62;70.69;101729.84;5055344;28;45965;-62
2022/03/16 02:03:32;;;;;;;;;15.25;13.50;;;;;12.61;70.60;101730.78;5051604;28;45321;-61
2022/03/16 02:05:59;;;;;;;;;18.75;16.00;;;;;12.62;70.76;101724.56;5055241;28;45433;-61
2022/03/16 02:08:27;;;;;;;;;18.00;16.00;;;;;12.60;70.61;101732.56;5058113;28;45883;-61
2022/03/16 02:10:52;;;;;;;;;16.75;14.00;;;;;12.58;70.82;101737.94;5056223;28;46221;-62
2022/03/16 02:13:18;;;;;;;;;18.00;15.50;;;;;12.57;70.83;101736.22;5053547;28;45246;-62
2022/03/16 02:15:43;;;;;;;;;21.25;16.50;;;;;12.57;70.79;101738.03;5066001;28;45384;-59
2022/03/16 02:18:09;;;;;;;;;18.25;15.75;;;;;12.57;70.85;101730.09;5042584;28;45523;-62
2022/03/16 02:20:35;;;;;;;;;14.00;14.00;;;;;12.57;70.59;101732.75;5053271;28;46117;-59
2022/03/16 02:23:06;;;;;;;;;14.00;12.75;;;;;12.55;71.11;101732.78;5059619;28;45460;-59
2022/03/16 02:25:32;;;;;;;;;16.50;15.50;;;;;12.52;71.02;101722.38;5060023;28;45274;-62
2022/03/16 02:27:58;;;;;;;;;17.75;17.25;;;;;12.49;70.85;101730.50;5055088;28;45516;-62
2022/03/16 02:30:28;;;;;;;;;19.00;17.00;;;;;12.51;70.86;101728.63;5053187;28;45638;-62
2022/03/16 02:32:54;;;;;;;;;18.25;16.00;;;;;12.48;70.85;101720.84;5057477;28;45388;-62
2022/03/16 02:35:21;;;;;;;;;19.25;19.00;;;;;12.46;70.72;101712.13;5060050;28;45336;-59
2022/03/16 02:37:47;;;;;;;;;19.00;16.75;;;;;12.45;71.06;101720.13;5058525;28;45264;-60
2022/03/16 02:40:19;;;;;;;;;15.25;14.00;;;;;12.41;71.03;101713.31;5059593;28;45448;-60
2022/03/16 02:42:45;;;;;;;;;19.00;16.00;;;;;12.41;71.00;101708.88;5048607;28;46362;-60
2022/03/16 02:45:10;;;;;;;;;19.00;16.50;;;;;12.40;71.03;101701.91;5051218;28;45458;-61
2022/03/16 02:47:39;;;;;;;;;17.00;14.25;;;;;12.41;71.04;101708.03;5066303;28;45491;-60
2022/03/16 02:50:05;;;;;;;;;19.25;16.25;;;;;12.39;70.98;101712.53;5066318;28;45467;-60
2022/03/16 02:52:31;;;;;;;;;23.00;19.25;;;;;12.35;71.08;101708.34;5066604;28;45276;-60
2022/03/16 02:54:56;;;;;;;;;24.50;14.00;;;;;12.32;71.19;101706.69;5066652;28;45470;-60
2022/03/16 02:57:22;;;;;;;;;19.25;17.50;;;;;12.29;70.97;101701.56;5048533;28;45340;-60
2022/03/16 02:59:47;;;;;;;;;20.25;18.50;;;;;12.26;71.28;101699.94;5066037;28;45426;-60
2022/03/16 03:02:13;;;;;;;;;24.00;16.75;;;;;12.24;71.29;101696.53;5067525;28;45521;-60
2022/03/16 03:04:39;;;;;;;;;17.00;15.75;;;;;12.25;71.46;101702.69;5055619;28;45363;-60
2022/03/16 03:07:05;;;;;;;;;18.25;16.25;;;;;12.24;71.63;101693.00;5047834;28;46335;-60
2022/03/16 03:09:31;;;;;;;;;16.75;14.25;;;;;12.22;71.47;101706.31;5047950;28;45574;-61
2022/03/16 03:11:59;;;;;;;;;24.25;20.25;;;;;12.18;71.75;101710.06;5047721;28;45423;-60
2022/03/16 03:14:25;;;;;;;;;25.25;19.50;;;;;12.18;71.73;101709.19;5048596;28;45533;-60
2022/03/16 03:16:51;;;;;;;;;25.75;20.50;;;;;12.18;71.67;101706.56;5047071;28;45467;-61
2022/03/16 03:19:16;;;;;;;;;19.00;17.50;;;;;12.17;71.60;101711.00;5048581;28;45689;-60
2022/03/16 03:21:42;;;;;;;;;22.00;19.50;;;;;12.18;71.88;101707.41;5046985;28;45393;-60
2022/03/16 03:24:08;;;;;;;;;20.00;16.75;;;;;12.19;71.72;101702.97;5048221;28;45372;-60
2022/03/16 03:26:33;;;;;;;;;24.50;18.50;;;;;12.22;71.62;101713.38;5047273;28;45342;-60
2022/03/16 03:28:59;;;;;;;;;23.75;19.25;;;;;12.24;71.65;101711.50;5048385;28;46071;-60
2022/03/16 03:31:24;;;;;;;;;19.00;17.75;;;;;12.26;71.79;101709.66;5046555;28;45266;-60
2022/03/16 03:33:50;;;;;;;;;24.00;18.25;;;;;12.26;71.86;101704.38;5040190;28;45458;-60
2022/03/16 03:36:15;;;;;;;;;18.25;15.25;;;;;12.27;71.67;101699.00;5053592;28;45241;-60
2022/03/16 03:38:41;;;;;;;;;20.50;16.00;;;;;12.27;71.64;101699.00;5052714;28;45376;-60
2022/03/16 03:41:06;;;;;;;;;19.75;19.00;;;;;12.26;71.74;101701.75;5062611;28;45265;-60
2022/03/16 03:43:32;;;;;;;;;25.25;20.50;;;;;12.25;71.86;101700.03;5062840;28;45316;-60
2022/03/16 03:45:57;;;;;;;;;23.25;18.50;;;;;12.27;71.81;101709.59;5062173;28;45489;-60
2022/03/16 03:48:22;;;;;;;;;24.75;18.25;;;;;12.28;71.74;101702.50;5062178;28;45903;-60
2022/03/16 03:50:48;;;;;;;;;22.00;17.75;;;;;12.26;71.66;101701.75;5062179;28;45423;-61
2022/03/16 03:53:15;;;;;;;;;23.25;18.75;;;;;12.28;71.64;101706.00;5062637;28;45216;-61
2022/03/16 03:55:41;;;;;;;;;17.50;17.00;;;;;12.27;71.82;101711.38;5062343;28;45511;-61
2022/03/16 03:58:06;;;;;;;;;22.75;20.00;;;;;12.30;71.59;101708.56;5062313;28;46063;-61
2022/03/16 04:00:32;;;;;;;;;26.75;19.75;;;;;12.32;71.71;101708.47;5061690;28;45338;-61
2022/03/16 04:02:57;;;;;;;;;20.25;14.25;;;;;12.33;71.84;101703.13;5061495;28;45405;-61
2022/03/16 04:05:22;;;;;;;;;26.25;23.75;;;;;12.32;71.59;101706.69;5040654;28;45408;-61
2022/03/16 04:07:48;;;;;;;;;21.50;19.50;;;;;12.33;71.59;101707.56;5056089;28;45565;-61
2022/03/16 04:10:14;;;;;;;;;23.75;21.00;;;;;12.30;71.62;101695.34;5062068;28;45561;-61
2022/03/16 04:12:40;;;;;;;;;22.50;19.00;;;;;12.29;71.58;101691.00;5062349;28;45399;-60
2022/03/16 04:15:06;;;;;;;;;21.50;19.75;;;;;12.24;71.80;101687.72;5043892;28;45324;-61
2022/03/16 04:17:32;;;;;;;;;23.50;20.75;;;;;12.22;71.62;101689.59;5060634;28;45757;-61
2022/03/16 04:19:57;;;;;;;;;22.75;20.00;;;;;12.19;71.62;101689.78;5061400;28;45386;-61
2022/03/16 04:22:26;;;;;;;;;19.25;18.50;;;;;12.18;72.29;101677.50;5061681;28;45286;-61
2022/03/16 04:24:52;;;;;;;;;27.00;20.75;;;;;12.15;71.72;101669.72;5061739;28;45458;-61
2022/03/16 04:27:17;;;;;;;;;20.75;17.25;;;;;12.12;72.24;101670.75;5060398;28;45426;-60
2022/03/16 04:29:43;;;;;;;;;23.00;20.00;;;;;12.09;71.84;101668.25;5061736;28;45234;-61
2022/03/16 04:32:08;;;;;;;;;24.50;21.50;;;;;12.06;72.19;101663.13;5059748;28;45379;-61
2022/03/16 04:34:34;;;;;;;;;23.00;20.50;;;;;12.06;72.27;101672.81;5049630;28;45320;-60
2022/03/16 04:36:59;;;;;;;;;22.00;18.75;;;;;12.05;72.08;101660.56;5058122;28;45304;-61
2022/03/16 04:39:25;;;;;;;;;25.50;20.25;;;;;12.04;72.14;101666.78;5051293;28;45305;-61
2022/03/16 04:41:50;;;;;;;;;31.25;21.25;;;;;12.00;72.18;101656.34;5061807;28;45275;-61
2022/03/16 04:44:15;;;;;;;;;25.75;21.75;;;;;11.99;72.42;101651.16;5061488;28;45320;-61
2022/03/16 04:46:41;;;;;;;;;23.75;17.00;;;;;11.98;72.37;101650.31;5061343;28;45254;-61
2022/03/16 04:49:06;;;;;;;;;25.50;23.00;;;;;11.96;72.39;101656.59;5061004;28;45441;-61
2022/03/16 04:51:32;;;;;;;;;21.50;19.00;;;;;11.94;72.41;101654.03;5061570;28;45212;-61
2022/03/16 04:53:58;;;;;;;;;26.75;22.50;;;;;11.91;72.35;101651.53;5061566;28;45559;-61
2022/03/16 04:56:23;;;;;;;;;24.00;20.75;;;;;11.91;72.52;101655.97;5061258;28;45939;-61
2022/03/16 04:58:48;;;;;;;;;25.75;22.25;;;;;11.90;72.55;101654.25;5060906;28;45251;-61
2022/03/16 05:01:14;;;;;;;;;23.25;20.25;;;;;11.89;72.58;101657.84;5039751;28;45315;-61
2022/03/16 05:03:39;;;;;;;;;27.50;22.50;;;;;11.88;72.89;101662.25;5059773;28;45394;-61
2022/03/16 05:06:05;;;;;;;;;21.00;18.00;;;;;11.86;72.74;101665.91;5060978;28;45889;-61
2022/03/16 05:08:35;;;;;;;;;18.75;18.75;;;;;11.83;72.83;101659.00;5061084;28;45284;-61
2022/03/16 05:11:02;;;;;;;;;28.00;22.00;;;;;11.84;72.83;101660.69;5061294;28;45392;-61
2022/03/16 05:13:27;;;;;;;;;42.00;32.00;;;;;11.83;73.07;101658.13;5054657;28;45361;-61
2022/03/16 05:15:53;;;;;;;;;25.75;22.75;;;;;11.82;73.37;101656.44;5060801;28;45296;-61
2022/03/16 05:18:18;;;;;;;;;26.25;19.75;;;;;11.82;73.35;101646.72;5061266;28;45374;-61
2022/03/16 05:20:44;;;;;;;;;19.25;19.25;;;;;11.81;72.97;101639.75;5061179;28;45396;-61
2022/03/16 05:23:09;;;;;;;;;24.00;19.25;;;;;11.79;73.33;101652.13;5060953;28;45332;-61
2022/03/16 05:25:35;;;;;;;;;27.50;23.25;;;;;11.79;73.34;101651.28;5051263;28;45384;-60
2022/03/16 05:28:01;;;;;;;;;27.25;24.50;;;;;11.79;73.43;101654.78;5060897;28;45356;-61
2022/03/16 05:30:27;;;;;;;;;21.50;20.25;;;;;11.78;72.94;101653.06;5060202;28;45307;-61
2022/03/16 05:32:56;;;;;;;;;17.75;13.00;;;;;11.78;73.36;101661.00;5052961;28;46130;-61
2022/03/16 05:35:22;;;;;;;;;25.00;23.00;;;;;11.82;73.33;101672.28;5057451;28;45543;-61
2022/03/16 05:37:47;;;;;;;;;33.75;24.75;;;;;11.82;73.42;101670.47;5052403;28;45471;-61
2022/03/16 05:40:13;;;;;;;;;28.75;27.00;;;;;11.84;73.18;101675.69;5053948;28;45148;-61
2022/03/16 05:42:39;;;;;;;;;25.00;23.50;;;;;11.86;73.15;101672.06;5060792;28;45155;-61
2022/03/16 05:45:06;;;;;;;;;29.25;22.50;;;;;11.87;73.41;101679.03;5060693;28;45341;-61
2022/03/16 05:47:31;;;;;;;;;30.25;23.50;;;;;11.89;73.13;101677.16;5059937;28;45300;-61
2022/03/16 05:49:57;;;;;;;;;26.00;23.50;;;;;11.92;72.87;101692.00;5060602;28;45411;-61
2022/03/16 05:52:24;;;;;;;;;28.00;24.25;;;;;11.93;73.12;101681.38;5060647;28;45579;-61
2022/03/16 05:54:51;;;;;;;;;22.25;16.25;;;;;11.94;73.17;101677.81;5060480;28;46145;-61
2022/03/16 05:57:17;;;;;;;;;23.75;22.75;;;;;11.94;73.14;101677.81;5060596;28;45245;-61
2022/03/16 05:59:44;;;;;;;;;25.75;25.00;;;;;11.94;72.88;101672.53;5060317;28;45470;-61
2022/03/16 06:02:10;;;;;;;;;30.25;22.75;;;;;11.94;73.09;101666.41;5060418;28;45405;-61
2022/03/16 06:04:37;;;;;;;;;28.50;23.50;;;;;11.94;72.88;101680.44;5058945;28;45295;-61
2022/03/16 06:07:04;;;;;;;;;26.25;22.75;;;;;11.94;73.06;101675.16;5060394;28;45467;-61
2022/03/16 06:09:30;;;;;;;;;26.75;25.00;;;;;11.95;73.10;101679.50;5052848;28;45445;-61
2022/03/16 06:11:55;;;;;;;;;29.50;24.50;;;;;11.96;73.29;101677.72;5060579;28;45323;-61
2022/03/16 06:14:21;;;;;;;;;32.50;25.50;;;;;11.96;73.25;101673.28;5060089;28;45316;-60
2022/03/16 06:16:50;;;;;;;;;24.25;23.00;;;;;11.97;73.36;101688.19;5059754;28;45503;-60
2022/03/16 06:19:15;;;;;;;;;32.00;25.25;;;;;11.99;72.96;101683.69;5059873;28;45282;-61
2022/03/16 06:21:41;;;;;;;;;28.25;27.25;;;;;12.02;72.82;101690.63;5060296;28;45260;-61
2022/03/16 06:24:07;;;;;;;;;28.25;22.75;;;;;12.04;73.11;101682.63;5060010;28;46164;-61
2022/03/16 06:26:32;;;;;;;;;30.00;25.00;;;;;12.04;72.94;101677.34;5059878;28;45486;-61
2022/03/16 06:28:58;;;;;;;;;28.50;21.50;;;;;12.05;73.13;101661.41;5060061;28;45428;-60
2022/03/16 06:31:23;;;;;;;;;30.50;28.00;;;;;12.06;72.73;101673.69;5059648;28;46831;-61
2022/03/16 06:33:49;;;;;;;;;34.75;31.25;;;;;12.07;72.90;101685.09;5046232;28;45328;-60
2022/03/16 06:36:14;;;;;;;;;25.75;24.75;;;;;12.07;72.81;101680.66;5056535;28;45435;-60
2022/03/16 06:38:40;;;;;;;;;33.25;22.75;;;;;12.09;72.79;101696.47;5049801;28;45472;-62
2022/03/16 06:41:06;;;;;;;;;28.25;26.50;;;;;12.10;72.87;101699.03;5046832;28;45506;-60
2022/03/16 06:43:31;;;;;;;;;29.25;24.75;;;;;12.13;72.64;101698.00;5048589;28;45621;-61
2022/03/16 06:45:57;;;;;;;;;28.00;25.75;;;;;12.13;72.77;101695.34;5045430;28;45378;-60
2022/03/16 06:48:23;;;;;;;;;23.50;22.00;;;;;12.16;72.66;101701.31;5052295;28;45529;-60
2022/03/16 06:50:52;;;;;;;;;36.25;29.25;;;;;12.19;72.29;101708.25;5053952;28;45430;-60
2022/03/16 06:53:17;;;;;;;;;30.00;25.75;;;;;12.21;72.56;101709.88;5050472;28;46430;-60
2022/03/16 06:55:43;;;;;;;;;23.75;23.75;;;;;12.24;72.75;101716.78;5051858;28;45367;-60
2022/03/16 06:58:09;;;;;;;;;27.00;24.25;;;;;12.26;72.81;101723.72;5046477;28;45292;-60
2022/03/16 07:00:34;;;;;;;;;27.75;25.50;;;;;12.29;72.51;101720.06;5056318;28;45579;-61
2022/03/16 07:03:02;;;;;;;;;28.25;25.00;;;;;12.30;72.60;101725.25;5042724;28;45571;-61
2022/03/16 07:05:33;;;;;;;;;32.75;28.75;;;;;12.32;72.25;101721.69;5048547;28;45361;-60
2022/03/16 07:08:03;;;;;;;;;25.25;24.00;;;;;12.32;72.19;101714.63;5035501;28;45420;-61
2022/03/16 07:10:30;;;;;;;;;31.50;27.50;;;;;12.36;72.30;101720.63;5049780;28;45434;-61
2022/03/16 07:12:55;;;;;;;;;39.25;30.75;;;;;12.37;72.27;101717.88;5048823;28;46168;-62
2022/03/16 07:15:21;;;;;;;;;30.75;23.25;;;;;12.38;72.14;101713.47;5049710;28;45434;-61
2022/03/16 07:17:47;;;;;;;;;28.75;24.50;;;;;12.40;72.04;101715.09;5049551;28;45317;-60
2022/03/16 07:20:13;;;;;;;;;28.00;26.50;;;;;12.42;72.15;101712.38;5055729;28;45454;-60
2022/03/16 07:22:39;;;;;;;;;26.50;24.50;;;;;12.45;72.06;101704.28;5056052;28;45306;-60
2022/03/16 07:25:09;;;;;;;;;30.00;26.25;;;;;12.46;71.84;101714.78;5037015;28;45525;-59
2022/03/16 07:27:40;;;;;;;;;25.25;24.50;;;;;12.49;71.98;101712.00;5024761;28;45270;-60
2022/03/16 07:30:07;;;;;;;;;32.00;27.25;;;;;12.49;71.88;101708.50;5051601;28;45548;-60
2022/03/16 07:32:36;;;;;;;;;25.50;24.50;;;;;12.50;71.85;101710.19;5048756;28;46121;-60
2022/03/16 07:35:02;;;;;;;;;31.50;25.50;;;;;12.52;71.62;101711.81;5052770;28;45537;-61
2022/03/16 07:37:27;;;;;;;;;35.75;28.50;;;;;12.54;71.80;101706.44;5064835;28;45482;-61
2022/03/16 07:39:53;;;;;;;;;36.25;28.75;;;;;12.56;71.56;101702.81;5045785;28;45662;-61
2022/03/16 07:42:18;;;;;;;;;30.25;24.75;;;;;12.58;71.78;101708.00;5042278;28;45265;-60
2022/03/16 07:44:45;;;;;;;;;26.75;26.00;;;;;12.63;71.74;101713.03;5042239;28;45363;-60
2022/03/16 07:47:11;;;;;;;;;32.50;27.75;;;;;12.67;71.56;101715.44;5041845;28;45415;-61
2022/03/16 07:49:36;;;;;;;;;27.25;25.50;;;;;12.70;71.64;101712.63;5042499;28;45432;-60
2022/03/16 07:52:02;;;;;;;;;33.75;26.25;;;;;12.74;71.46;101708.06;5041662;28;46029;-60
2022/03/16 07:54:28;;;;;;;;;31.25;27.00;;;;;12.76;71.24;101714.13;5041942;28;45332;-61
2022/03/16 07:56:53;;;;;;;;;35.75;27.75;;;;;12.79;71.15;101713.94;5041820;28;45310;-61
2022/03/16 07:59:19;;;;;;;;;29.25;26.25;;;;;12.83;71.13;101718.16;5041575;28;45243;-60
2022/03/16 08:01:44;;;;;;;;;41.50;36.25;;;;;12.86;71.13;101716.19;5041015;28;45831;-61
2022/03/16 08:04:10;;;;;;;;;38.75;33.00;;;;;12.91;70.95;101718.59;5041596;28;45222;-61
2022/03/16 08:06:36;;;;;;;;;25.25;22.00;;;;;12.93;70.76;101719.34;5042428;28;45277;-61
2022/03/16 08:09:01;;;;;;;;;28.75;26.00;;;;;12.95;70.67;101709.53;5042711;28;45557;-61
2022/03/16 08:11:27;;;;;;;;;29.75;25.75;;;;;12.95;70.79;101706.91;5042138;28;45279;-61
2022/03/16 08:13:52;;;;;;;;;30.00;26.00;;;;;12.96;70.47;101707.78;5041944;28;45480;-61
2022/03/16 08:16:18;;;;;;;;;29.75;26.75;;;;;12.98;70.55;101700.59;5041749;28;45364;-60
2022/03/16 08:18:43;;;;;;;;;25.50;23.75;;;;;13.01;70.57;101693.34;5042154;28;45444;-61
2022/03/16 08:21:09;;;;;;;;;27.00;27.00;;;;;13.04;70.60;101705.56;5041709;28;45934;-60
2022/03/16 08:23:34;;;;;;;;;32.25;25.75;;;;;13.05;70.32;101699.34;5041827;28;45280;-60
2022/03/16 08:25:59;;;;;;;;;31.00;26.50;;;;;13.04;70.13;101701.13;5042092;28;45344;-61
2022/03/16 08:28:26;;;;;;;;;27.50;24.00;;;;;13.02;70.13;101697.69;5041980;28;45312;-61
2022/03/16 08:30:52;;;;;;;;;32.50;26.50;;;;;12.98;70.08;101698.81;5041306;28;45443;-61
2022/03/16 08:33:18;;;;;;;;;33.00;27.50;;;;;13.03;70.08;101704.72;5041815;28;45270;-61
2022/03/16 08:35:44;;;;;;;;;36.50;28.50;;;;;13.05;70.11;101709.91;5041909;28;45338;-61
2022/03/16 08:38:10;;;;;;;;;33.50;26.25;;;;;13.06;69.90;101708.97;5061108;28;45224;-61
2022/03/16 08:40:36;;;;;;;;;32.75;29.00;;;;;13.08;69.97;101707.94;5049221;28;45911;-61
2022/03/16 08:43:02;;;;;;;;;32.25;28.50;;;;;13.10;70.06;101700.78;5041744;28;45245;-61
2022/03/16 08:45:28;;;;;;;;;30.00;27.50;;;;;13.11;70.01;101707.81;5041583;28;45317;-61
2022/03/16 08:47:54;;;;;;;;;31.50;28.25;;;;;13.13;69.85;101708.56;5041418;28;45318;-61
2022/03/16 08:50:19;;;;;;;;;31.00;26.75;;;;;13.17;69.99;101703.94;5041605;28;45531;-61
2022/03/16 08:52:45;;;;;;;;;39.75;27.00;;;;;13.22;69.82;101709.03;5046162;28;45336;-61
2022/03/16 08:55:14;;;;;;;;;34.25;29.75;;;;;13.25;69.87;101712.34;5041535;28;45471;-61
2022/03/16 08:57:39;;;;;;;;;31.75;29.25;;;;;13.29;69.62;101719.19;5041674;28;45223;-61
2022/03/16 09:00:06;;;;;;;;;30.75;27.25;;;;;13.31;69.63;101730.53;5041455;28;46158;-61
2022/03/16 09:02:31;;;;;;;;;32.50;27.50;;;;;13.33;69.73;101733.09;5040982;28;45222;-61
2022/03/16 09:04:57;;;;;;;;;38.25;32.25;;;;;13.36;69.66;101730.31;5040617;28;45202;-61
2022/03/16 09:07:22;;;;;;;;;32.75;27.50;;;;;13.37;69.41;101743.44;5041462;28;45302;-61
2022/03/16 09:09:47;;;;;;;;;32.25;29.75;;;;;13.43;69.41;101736.09;5041152;28;45372;-61
2022/03/16 09:12:15;;;;;;;;;29.25;25.75;;;;;13.45;69.43;101737.72;5041141;28;45253;-61
2022/03/16 09:14:41;;;;;;;;;25.50;21.50;;;;;13.49;69.14;101733.13;5041381;28;45333;-61
2022/03/16 09:17:10;;;;;;;;;27.50;26.00;;;;;13.54;68.86;101729.28;5040916;28;45262;-61
2022/03/16 09:19:36;;;;;;;;;24.00;18.50;;;;;13.57;68.85;101723.81;5023172;28;45590;-61
2022/03/16 09:22:04;;;;;;;;;30.50;27.25;;;;;13.59;68.63;101724.59;5041055;28;45241;-62
2022/03/16 09:24:29;;;;;;;;;34.00;27.00;;;;;13.61;68.58;101727.16;5041275;28;45396;-61
2022/03/16 09:26:59;;;;;;;;;36.50;28.50;;;;;13.67;68.62;101735.59;5041242;28;45299;-61
2022/03/16 09:29:25;;;;;;;;;29.50;27.75;;;;;13.73;68.78;101734.38;5023032;28;46854;-61
2022/03/16 09:31:51;;;;;;;;;31.50;29.50;;;;;13.77;68.21;101735.94;5047497;28;45308;-61
2022/03/16 09:34:16;;;;;;;;;34.50;27.50;;;;;13.83;68.14;101737.38;5061248;28;45150;-64
2022/03/16 09:36:42;;;;;;;;;27.25;23.00;;;;;13.89;68.18;101731.72;5061353;28;45451;-63
2022/03/16 09:39:08;;;;;;;;;34.50;26.50;;;;;13.89;67.81;101737.00;5060234;28;45526;-62
2022/03/16 09:41:36;;;;;;;;;26.50;23.25;;;;;13.89;67.41;101735.22;5040894;28;45301;-61
2022/03/16 09:44:02;;;;;;;;;32.00;27.00;;;;;13.92;67.77;101734.22;5040871;28;45316;-65
2022/03/16 09:46:34;;;;;;;;;30.75;25.50;;;;;13.95;67.62;101732.22;5040604;28;45511;-63
2022/03/16 09:49:01;;;;;;;;;30.50;30.50;;;;;14.02;67.38;101727.44;5040261;28;46226;-61
2022/03/16 09:51:27;;;;;;;;;35.00;31.75;;;;;14.07;67.13;101733.31;5040706;28;45311;-61
2022/03/16 09:53:53;;;;;;;;;35.00;30.50;;;;;14.13;67.36;101730.28;5045214;28;45238;-61
2022/03/16 09:56:19;;;;;;;;;36.25;30.25;;;;;14.16;67.26;101724.84;5040859;28;45432;-60
2022/03/16 09:58:46;;;;;;;;;28.00;25.25;;;;;14.19;66.79;101721.13;5040365;28;45527;-61
2022/03/16 10:01:12;;;;;;;;;39.75;30.00;;;;;14.22;66.83;101719.19;5040343;28;45316;-61
2022/03/16 10:03:37;;;;;;;;;38.00;29.50;;;;;14.23;66.80;101710.28;5040464;28;45321;-61
2022/03/16 10:06:06;;;;;;;;;32.00;29.75;;;;;14.25;66.90;101715.50;5040779;28;45380;-61
2022/03/16 10:08:35;;;;;;;;;32.75;28.50;;;;;14.29;66.39;101708.19;5040374;28;45455;-61
2022/03/16 10:13:59;;;;;;;;;37.00;32.50;;;;;14.36;66.29;101712.19;5047539;28;45240;-61
2022/03/16 10:16:25;;;;;;;;;32.25;25.50;;;;;14.43;66.51;101711.72;5062958;28;45518;-61
2022/03/16 10:18:56;;;;;;;;;33.75;27.00;;;;;14.48;65.92;101717.66;5064271;28;46058;-61
2022/03/16 10:21:24;;;;;;;;;36.00;30.25;;;;;14.50;65.39;101710.47;5063932;28;45207;-61
2022/03/16 10:23:50;;;;;;;;;29.75;27.75;;;;;14.55;65.65;101701.38;5064058;28;45256;-61
2022/03/16 10:26:18;;;;;;;;;38.50;28.00;;;;;14.55;65.54;101704.88;5064113;28;45551;-61
2022/03/16 10:28:48;;;;;;;;;35.25;30.25;;;;;14.59;65.59;101694.94;5064118;28;45302;-61
2022/03/16 10:31:16;;;;;;;;;32.00;29.25;;;;;14.65;65.35;101702.53;5063384;28;45553;-61
2022/03/16 10:33:48;;;;;;;;;41.00;33.50;;;;;14.67;65.21;101703.28;5063900;28;45351;-62
2022/03/16 10:36:26;;;;;;;;;34.50;31.75;;;;;14.73;65.56;101710.88;5063838;28;45501;-61
2022/03/16 10:39:02;;;;;;;;;36.25;31.75;;;;;14.82;65.10;101706.78;5063669;28;46412;-61
2022/03/16 10:47:21;;;;;;;;;38.50;32.25;;;;;15.00;64.45;101692.38;5043097;28;45474;-61
2022/03/16 10:50:00;;;;;;;;;36.25;32.50;;;;;15.05;64.38;101696.47;5051441;28;45376;-61
2022/03/16 10:52:31;;;;;;;;;37.00;32.00;;;;;15.10;64.17;101687.38;5060177;28;45411;-61
2022/03/16 10:54:58;;;;;;;;;32.75;26.50;;;;;15.17;64.28;101694.00;5043445;28;45174;-61
2022/03/16 10:57:25;;;;;;;;;32.50;30.75;;;;;15.22;63.99;101689.22;5043331;28;45333;-61
2022/03/16 10:59:53;;;;;;;;;32.50;29.00;;;;;15.23;63.42;101690.94;5043225;28;45436;-61
2022/03/16 11:02:21;;;;;;;;;30.25;27.00;;;;;15.22;63.78;101674.16;5042604;28;45445;-61
2022/03/16 11:04:50;;;;;;;;;38.75;33.75;;;;;15.23;63.51;101670.53;5043297;28;45501;-61
2022/03/16 11:07:16;;;;;;;;;32.50;27.50;;;;;15.26;63.57;101665.06;5025141;28;45621;-61
2022/03/16 11:09:41;;;;;;;;;33.25;30.50;;;;;15.32;63.76;101653.16;5043077;28;45557;-62
2022/03/16 11:14:53;;;;;;;;;31.25;30.25;;;;;15.54;63.20;101660.59;5043081;28;45380;-62
2022/03/16 11:17:20;;;;;;;;;33.25;30.50;;;;;15.65;63.29;101658.16;5042763;28;45338;-62